Pilot Mound, Canada
Current Conditions -  °F | °C
As of 8:15 PM on Friday 28 Nov 2014 (Local Time) from KD55 Reporting Station
Haze Haze  
Wind Chill: -3°   Ceiling: 300
Heat Index: 12°   Visibility: 5mi
Dew Point:   Wind: 13mph
Humidity: 85%   Direction: 140°SE
Pressure: 29.59"   Gusts: NA
Location:  49.2°N, 98.9°W
Report Text: KD55 290215Z AUTO 14011KT 5SM BR OVC003 M11/M13 A2959 RMK AO2
Loading
Personal Weather Stations






























Interactive Weather Map New forecast layout! Learn more

10-Day Weather Forecast

Advertisements
Track Severe Weather on mobile